Time;durP1;ratioP1;P1;durP2;ratioP2;P2;SDS_P1;SDS_P2;PMS_P1;PMS_P2;Temp;Humidity;BMP_temperature;BMP_pressure;BME280_temperature;BME280_humidity;BME280_pressure;Samples;Min_cycle;Max_cycle;Signal;HPM_P1;HPM_P2
2023/01/27 00:00:18;;;;;;;18.33;6.95;;;;;;;-2.83;100.00;95893.66;1017905;29;20028;-72
2023/01/27 00:00:49;;;;;;;18.60;6.90;;;;;;;-2.93;100.00;95886.19;1022230;28;20031;-74
2023/01/27 00:01:20;;;;;;;20.10;7.13;;;;;;;-2.87;100.00;95890.63;1021829;28;20101;-70
2023/01/27 00:01:50;;;;;;;18.85;7.22;;;;;;;-2.93;100.00;95875.94;1018093;29;20550;-73
2023/01/27 00:02:21;;;;;;;21.63;7.22;;;;;;;-2.83;100.00;95902.16;1018174;29;20039;-73
2023/01/27 00:02:51;;;;;;;23.17;8.48;;;;;;;-2.84;100.00;95885.16;1020630;28;20107;-72
2023/01/27 00:03:22;;;;;;;24.40;7.97;;;;;;;-2.78;100.00;95892.16;1022167;29;20484;-71
2023/01/27 00:03:52;;;;;;;20.00;7.82;;;;;;;-2.76;100.00;95891.97;1018361;29;20027;-72
2023/01/27 00:04:23;;;;;;;16.98;6.97;;;;;;;-2.76;100.00;95897.91;1021683;28;20023;-71
2023/01/27 00:04:53;;;;;;;18.38;7.40;;;;;;;-2.75;100.00;95893.56;1025972;28;20089;-72
2023/01/27 00:05:24;;;;;;;20.92;7.22;;;;;;;-2.75;100.00;95894.38;1029999;28;20027;-71
2023/01/27 00:05:54;;;;;;;19.35;7.60;;;;;;;-2.75;100.00;95899.53;1029565;28;20066;-72
2023/01/27 00:06:25;;;;;;;22.42;7.35;;;;;;;-2.77;100.00;95895.53;1025725;28;20058;-71
2023/01/27 00:06:55;;;;;;;21.95;7.28;;;;;;;-2.80;100.00;95891.53;1022039;29;20039;-74
2023/01/27 00:07:26;;;;;;;23.40;7.45;;;;;;;-2.82;100.00;95885.75;1022269;29;20419;-72
2023/01/27 00:07:57;;;;;;;20.05;7.53;;;;;;;-2.76;100.00;95897.13;1022223;28;20038;-73
2023/01/27 00:08:28;;;;;;;24.78;8.12;;;;;;;-2.77;100.00;95898.09;1022011;29;20541;-72
2023/01/27 00:08:58;;;;;;;17.92;7.03;;;;;;;-2.77;100.00;95896.31;1021911;29;20042;-75
2023/01/27 00:09:29;;;;;;;22.75;7.78;;;;;;;-2.76;100.00;95897.13;1025078;28;20289;-73
2023/01/27 00:09:59;;;;;;;21.42;7.50;;;;;;;-2.75;100.00;95898.69;1018498;28;20031;-72
2023/01/27 00:10:30;;;;;;;21.38;7.63;;;;;;;-2.79;100.00;95895.69;1022100;29;20073;-72
2023/01/27 00:13:30;;;;;;;22.96;7.54;;;;;;;-2.82;100.00;95885.75;1023395;28;20095;-75
2023/01/27 00:14:01;;;;;;;16.78;7.04;;;;;;;-2.82;100.00;95882.41;1026777;28;20093;-74
2023/01/27 00:14:31;;;;;;;18.17;7.25;;;;;;;-2.82;100.00;95878.06;1023088;28;20019;-71
2023/01/27 00:15:02;;;;;;;20.58;8.18;;;;;;;-2.82;100.00;95878.06;1026618;28;20038;-73
2023/01/27 00:15:33;;;;;;;15.20;6.86;;;;;;;-2.85;100.00;95880.97;1022027;29;20039;-73
2023/01/27 00:16:04;;;;;;;21.23;7.82;;;;;;;-2.82;100.00;95878.06;1018449;29;20579;-72
2023/01/27 00:16:35;;;;;;;21.15;8.23;;;;;;;-2.83;100.00;95881.63;1018870;29;20128;-70
2023/01/27 00:17:05;;;;;;;19.04;8.06;;;;;;;-2.82;100.00;95880.63;1018893;29;20035;-72
2023/01/27 00:17:36;;;;;;;21.05;7.57;;;;;;;-2.82;100.00;95879.84;1018972;29;20027;-72
2023/01/27 00:18:06;;;;;;;16.63;6.60;;;;;;;-2.83;100.00;95875.69;1022740;28;20042;-72
2023/01/27 00:18:37;;;;;;;21.65;8.05;;;;;;;-2.83;100.00;95879.03;1023032;28;20038;-72
2023/01/27 00:19:07;;;;;;;21.33;8.25;;;;;;;-2.86;100.00;95871.69;1022653;29;20027;-74
2023/01/27 00:19:38;;;;;;;18.33;8.02;;;;;;;-2.80;100.00;95872.75;1022865;28;20397;-72
2023/01/27 00:20:09;;;;;;;21.60;8.35;;;;;;;-2.85;100.00;95863.00;1022820;29;20155;-71
2023/01/27 00:24:52;;;;;;;23.12;7.64;;;;;;;-2.84;100.00;95864.63;1026822;28;20065;-73
2023/01/27 00:25:22;;;;;;;20.13;7.50;;;;;;;-2.85;100.00;95868.97;1028580;28;20078;-71
2023/01/27 00:25:57;;;;;;;20.83;6.78;;;;;;;-2.83;100.00;95868.78;1030141;28;20030;-73
2023/01/27 00:26:28;;;;;;;20.14;7.44;;;;;;;-2.82;100.00;95867.78;1027553;28;20124;-72
2023/01/27 00:26:58;;;;;;;24.23;8.38;;;;;;;-2.82;100.00;95870.34;1022718;29;20457;-72
2023/01/27 00:27:28;;;;;;;24.33;7.95;;;;;;;-2.85;100.00;95857.88;1019344;29;20027;-73
2023/01/27 00:27:59;;;;;;;22.35;7.57;;;;;;;-2.80;100.00;95870.19;1018887;29;20031;-71
2023/01/27 00:28:30;;;;;;;24.65;8.43;;;;;;;-2.79;100.00;95871.78;1018719;29;20626;-71
2023/01/27 00:29:00;;;;;;;21.08;8.32;;;;;;;-2.79;100.00;95870.00;1022914;28;20035;-71
2023/01/27 00:29:31;;;;;;;21.20;7.32;;;;;;;-2.83;100.00;95875.69;1026746;28;20075;-71
2023/01/27 00:30:03;;;;;;;19.88;8.63;;;;;;;-2.95;100.00;95849.63;1018736;29;20042;-73
2023/01/27 00:30:34;;;;;;;18.54;7.62;;;;;;;-2.90;100.00;95865.31;1023108;28;20089;-72
2023/01/27 00:31:04;;;;;;;16.10;8.00;;;;;;;-2.83;100.00;95868.78;1022723;29;20034;-74
2023/01/27 00:33:25;;;;;;;22.02;7.10;;;;;;;-2.83;100.00;95871.34;1020215;28;20024;-72
2023/01/27 00:34:00;;;;;;;20.06;7.00;;;;;;;-2.82;100.00;95872.94;1023048;28;20420;-73
2023/01/27 00:34:34;;;;;;;21.98;8.28;;;;;;;-2.84;100.00;95864.63;1026989;28;20097;-72
2023/01/27 00:35:07;;;;;;;22.46;7.36;;;;;;;-2.82;100.00;95865.22;1026921;28;20488;-74
2023/01/27 00:35:38;;;;;;;20.20;8.18;;;;;;;-2.82;100.00;95860.09;1023503;28;20023;-72
2023/01/27 00:36:08;;;;;;;18.92;7.03;;;;;;;-2.81;100.00;95860.91;1021772;28;20031;-71
2023/01/27 00:36:40;;;;;;;21.02;8.82;;;;;;;-2.83;100.00;95855.94;1023088;29;20118;-71
2023/01/27 00:37:10;;;;;;;19.52;8.38;;;;;;;-2.82;100.00;95860.09;1023616;28;20027;-71
2023/01/27 00:37:41;;;;;;;19.27;7.65;;;;;;;-2.81;100.00;95858.34;1026822;28;20031;-74
2023/01/27 00:38:12;;;;;;;23.56;7.92;;;;;;;-2.86;100.00;95856.28;1022674;29;20202;-72
2023/01/27 00:38:42;;;;;;;19.75;7.40;;;;;;;-2.80;100.00;95865.84;1019038;29;20042;-71
2023/01/27 00:39:13;;;;;;;18.55;7.50;;;;;;;-2.81;100.00;95859.13;1026623;28;20434;-73
2023/01/27 00:39:43;;;;;;;19.10;7.53;;;;;;;-2.81;100.00;95859.13;1018857;29;20032;-72
2023/01/27 00:40:15;;;;;;;16.60;7.40;;;;;;;-2.88;100.00;95850.53;1022231;29;20031;-72
2023/01/27 00:41:14;;;;;;;19.00;7.58;;;;;;;-2.79;100.00;95864.88;1026318;28;20150;-73
2023/01/27 00:41:36;;;;;;;18.27;7.47;;;;;;;-2.79;100.00;95862.31;1029383;28;20022;-72
2023/01/27 00:42:06;;;;;;;26.83;7.88;;;;;;;-2.77;100.00;95873.22;1030530;28;20266;-72
2023/01/27 00:42:36;;;;;;;19.08;8.38;;;;;;;-2.81;100.00;95864.28;1022552;28;20030;-73
2023/01/27 00:43:07;;;;;;;19.52;7.53;;;;;;;-2.85;100.00;95857.88;1026462;28;20074;-71
2023/01/27 00:43:37;;;;;;;24.02;8.05;;;;;;;-2.76;100.00;95868.88;1022842;29;20416;-73
2023/01/27 00:44:14;;;;;;;17.38;7.05;;;;;;;-2.76;100.00;95874.78;1026286;28;20042;-73
2023/01/27 00:45:47;;;;;;;25.06;7.86;;;;;;;-2.76;100.00;95872.22;1024890;28;20023;-73
2023/01/27 00:45:51;;;;;;;20.77;8.02;;;;;;;-2.72;100.00;95878.59;1021421;28;20035;-73
2023/01/27 00:46:22;;;;;;;24.25;7.80;;;;;;;-2.69;100.00;95878.25;1027835;28;20035;-72
2023/01/27 00:46:53;;;;;;;20.20;7.72;;;;;;;-2.71;100.00;95874.28;1026443;28;20052;-72
2023/01/27 00:47:23;;;;;;;22.20;7.80;;;;;;;-2.74;100.00;95877.22;1026274;28;20019;-71
2023/01/27 00:47:53;;;;;;;18.48;7.15;;;;;;;-2.73;100.00;95874.44;1026212;28;20019;-73
2023/01/27 00:48:24;;;;;;;18.52;7.97;;;;;;;-2.75;100.00;95868.72;1026318;28;20026;-72
2023/01/27 00:48:54;;;;;;;22.60;8.18;;;;;;;-2.73;100.00;95871.88;1026550;28;20513;-72
2023/01/27 00:49:25;;;;;;;24.95;8.05;;;;;;;-2.79;100.00;95864.88;1026584;28;20117;-71
2023/01/27 00:49:55;;;;;;;22.55;8.88;;;;;;;-2.74;100.00;95875.44;1024068;28;20063;-71
2023/01/27 00:50:26;;;;;;;20.58;8.50;;;;;;;-2.74;100.00;95880.56;1018630;29;20035;-72
2023/01/27 00:50:56;;;;;;;26.08;8.25;;;;;;;-2.75;100.00;95878.16;1019645;29;20067;-73
2023/01/27 00:51:27;;;;;;;20.52;8.38;;;;;;;-2.75;100.00;95873.84;1022273;29;20034;-70
2023/01/27 00:51:57;;;;;;;19.77;8.32;;;;;;;-2.72;100.00;95886.31;1019533;29;20054;-72
2023/01/27 00:52:28;;;;;;;22.83;8.38;;;;;;;-2.69;100.00;95883.38;1022121;28;20378;-72
2023/01/27 00:53:01;;;;;;;20.75;7.63;;;;;;;-2.70;100.00;95881.00;1026857;28;20019;-73
2023/01/27 00:53:31;;;;;;;20.50;7.70;;;;;;;-2.70;100.00;95881.81;1030457;28;20046;-73
2023/01/27 00:54:02;;;;;;;20.75;7.47;;;;;;;-2.83;100.00;95871.34;1026222;28;20492;-72
2023/01/27 00:54:32;;;;;;;18.90;7.75;;;;;;;-2.73;100.00;95877.00;1024722;28;20058;-70
2023/01/27 00:55:03;;;;;;;20.23;7.57;;;;;;;-2.71;100.00;95885.34;1022692;29;20449;-72
2023/01/27 00:55:33;;;;;;;23.90;8.60;;;;;;;-2.68;100.00;95886.78;1022213;28;20034;-72
2023/01/27 00:56:04;;;;;;;20.73;8.00;;;;;;;-2.78;100.00;95876.75;1025056;28;20039;-71
2023/01/27 00:56:35;;;;;;;23.65;8.27;;;;;;;-2.74;100.00;95877.22;1018400;29;20062;-73
2023/01/27 00:57:05;;;;;;;21.92;7.55;;;;;;;-2.71;100.00;95889.69;1018710;29;20114;-73
2023/01/27 00:57:36;;;;;;;19.25;7.72;;;;;;;-2.69;100.00;95893.66;1018555;29;20733;-71
2023/01/27 00:58:07;;;;;;;25.73;8.45;;;;;;;-2.66;100.00;95890.75;1015022;29;20135;-70
2023/01/27 00:58:37;;;;;;;22.60;8.48;;;;;;;-2.67;100.00;95891.72;1018848;28;20263;-74
2023/01/27 00:59:08;;;;;;;23.98;7.97;;;;;;;-2.67;100.00;95891.72;1026681;28;20424;-73
2023/01/27 00:59:38;;;;;;;23.35;8.18;;;;;;;-2.64;100.00;95893.94;1018647;29;20092;-73
2023/01/27 01:00:09;;;;;;;22.60;8.68;;;;;;;-2.62;100.00;95889.44;1022567;29;20039;-74
2023/01/27 01:00:39;;;;;;;20.75;7.95;;;;;;;-2.62;100.00;95899.72;1022783;28;20027;-71
2023/01/27 01:01:11;;;;;;;21.60;8.73;;;;;;;-2.62;100.00;95897.16;1026672;28;20297;-74
2023/01/27 01:01:42;;;;;;;24.24;8.98;;;;;;;-2.64;100.00;95901.66;1022162;29;20023;-74
2023/01/27 01:02:12;;;;;;;20.42;9.15;;;;;;;-2.58;100.00;95901.91;1022741;29;20525;-72
2023/01/27 01:02:43;;;;;;;21.45;8.35;;;;;;;-2.60;100.00;95896.97;1023768;28;20023;-71
2023/01/27 01:03:13;;;;;;;22.58;8.02;;;;;;;-2.57;100.00;95896.59;1030720;28;20804;-72
2023/01/27 01:03:44;;;;;;;25.48;8.13;;;;;;;-2.67;100.00;95888.38;1023401;28;20027;-73
2023/01/27 01:04:14;;;;;;;19.85;7.68;;;;;;;-2.56;100.00;95902.53;1018832;29;20060;-72
2023/01/27 01:04:45;;;;;;;25.05;8.10;;;;;;;-2.71;100.00;95900.75;1018403;29;20079;-72
2023/01/27 01:05:15;;;;;;;22.25;9.18;;;;;;;-2.65;100.00;95900.06;1018649;29;20019;-72
2023/01/27 01:05:45;;;;;;;23.63;8.55;;;;;;;-2.64;100.00;95901.66;1016684;29;20027;-70
2023/01/27 01:06:16;;;;;;;21.65;8.30;;;;;;;-2.62;100.00;95902.28;1014773;29;20020;-72
2023/01/27 01:06:47;;;;;;;21.17;7.68;;;;;;;-2.60;100.00;95907.22;1016028;29;20016;-71
2023/01/27 01:07:17;;;;;;;21.58;7.95;;;;;;;-2.59;100.00;95897.75;1014879;29;20084;-71
2023/01/27 01:07:47;;;;;;;25.65;9.25;;;;;;;-2.61;100.00;95896.16;1022446;28;20074;-73
2023/01/27 01:08:18;;;;;;;25.92;7.93;;;;;;;-2.61;100.00;95901.31;1022486;29;20024;-70
2023/01/27 01:08:50;;;;;;;22.33;8.50;;;;;;;-2.68;100.00;95892.72;1022309;28;20517;-72
2023/01/27 01:09:20;;;;;;;22.38;9.24;;;;;;;-2.58;100.00;95905.28;1026537;28;20026;-73
2023/01/27 01:09:51;;;;;;;23.88;8.48;;;;;;;-2.57;100.00;95895.81;1022653;28;20765;-72
2023/01/27 01:10:21;;;;;;;23.13;9.02;;;;;;;-2.55;100.00;95899.78;1018605;29;20028;-72
2023/01/27 01:10:52;;;;;;;22.90;8.27;;;;;;;-2.58;100.00;95894.19;1018702;29;20030;-72
2023/01/27 01:11:22;;;;;;;23.40;8.77;;;;;;;-2.59;100.00;95900.31;1026314;28;20097;-71
2023/01/27 01:11:53;;;;;;;20.48;9.05;;;;;;;-2.52;100.00;95901.19;1018731;29;20406;-71
2023/01/27 01:12:23;;;;;;;23.92;8.98;;;;;;;-2.47;100.00;95904.06;1018883;29;20028;-70
2023/01/27 01:12:54;;;;;;;24.63;9.40;;;;;;;-2.48;100.00;95900.69;1010963;29;20033;-73
2023/01/27 01:13:26;;;;;;;22.75;8.93;;;;;;;-2.50;100.00;95902.63;1015176;29;20422;-71
2023/01/27 01:13:57;;;;;;;24.06;8.32;;;;;;;-2.59;100.00;95885.69;1022799;29;20033;-72
2023/01/27 01:14:27;;;;;;;21.13;8.80;;;;;;;-2.50;100.00;95899.25;1019468;28;20039;-71
2023/01/27 01:14:57;;;;;;;20.77;7.93;;;;;;;-2.51;100.00;95898.47;1026479;28;20023;-74
2023/01/27 01:15:28;;;;;;;23.42;9.10;;;;;;;-2.50;100.00;95891.56;1026135;28;20026;-70
2023/01/27 01:16:07;;;;;;;20.25;8.13;;;;;;;-2.50;100.00;95891.56;1026442;28;20668;-73
2023/01/27 01:16:37;;;;;;;20.32;8.40;;;;;;;-2.53;100.00;95897.84;1026354;28;20830;-71
2023/01/27 01:17:08;;;;;;;18.23;7.25;;;;;;;-2.56;100.00;95890.47;1022623;29;20031;-72
2023/01/27 01:17:38;;;;;;;23.83;8.25;;;;;;;-2.48;100.00;95892.97;1018612;29;20024;-71
2023/01/27 01:18:09;;;;;;;24.15;8.13;;;;;;;-2.59;100.00;95878.00;1019070;29;20477;-74
2023/01/27 01:18:39;;;;;;;21.75;7.68;;;;;;;-2.52;100.00;95885.78;1026537;28;20541;-72
2023/01/27 01:19:10;;;;;;;22.10;8.10;;;;;;;-2.48;100.00;95894.72;1026621;28;20031;-73
2023/01/27 01:19:40;;;;;;;24.85;8.98;;;;;;;-2.46;100.00;95892.78;1022794;28;20042;-71
2023/01/27 01:20:11;;;;;;;19.45;8.18;;;;;;;-2.46;100.00;95893.59;1022250;29;20027;-73
2023/01/27 01:20:42;;;;;;;19.33;8.15;;;;;;;-2.54;100.00;95887.75;1017062;29;20039;-73
2023/01/27 01:21:13;;;;;;;22.28;8.10;;;;;;;-2.49;100.00;95893.94;1019158;28;20055;-72
2023/01/27 01:21:43;;;;;;;23.42;9.43;;;;;;;-2.53;100.00;95902.97;1026388;28;20023;-71
2023/01/27 01:22:14;;;;;;;21.38;8.95;;;;;;;-2.49;100.00;95898.28;1030523;28;20022;-73
2023/01/27 01:22:44;;;;;;;24.88;8.02;;;;;;;-2.50;100.00;95899.25;1026144;28;20575;-74
2023/01/27 01:23:15;;;;;;;19.48;8.50;;;;;;;-2.54;100.00;95898.81;1022647;28;20027;-73
2023/01/27 01:23:45;;;;;;;20.90;8.45;;;;;;;-2.54;100.00;95891.13;1022605;29;20114;-72
2023/01/27 01:24:16;;;;;;;24.42;8.70;;;;;;;-2.52;100.00;95901.19;1022826;28;20114;-74
2023/01/27 01:24:47;;;;;;;28.63;8.85;;;;;;;-2.52;100.00;95896.06;1026556;28;20114;-74
2023/01/27 01:25:17;;;;;;;22.10;9.10;;;;;;;-2.58;100.00;95878.78;1030702;28;20642;-73
2023/01/27 01:25:52;;;;;;;20.02;8.02;;;;;;;-2.54;100.00;95892.91;1021809;28;20043;-71
2023/01/27 01:26:22;;;;;;;26.66;8.36;;;;;;;-2.57;100.00;95893.25;1022555;28;20023;-70
2023/01/27 01:26:53;;;;;;;21.05;8.00;;;;;;;-2.64;100.00;95888.00;1022462;29;20024;-71
2023/01/27 01:27:23;;;;;;;21.08;7.80;;;;;;;-2.57;100.00;95895.81;1023412;28;20075;-71
2023/01/27 01:27:54;;;;;;;24.58;8.55;;;;;;;-2.54;100.00;95898.03;1022249;29;20103;-72
2023/01/27 01:28:24;;;;;;;18.80;7.75;;;;;;;-2.61;100.00;95891.03;1018195;29;20031;-73
2023/01/27 01:28:55;;;;;;;24.13;8.20;;;;;;;-2.57;100.00;95890.69;1022450;29;20367;-73
2023/01/27 01:29:25;;;;;;;22.20;8.93;;;;;;;-2.59;100.00;95893.41;1022562;28;20653;-72
2023/01/27 01:29:56;;;;;;;20.35;8.23;;;;;;;-2.63;100.00;95892.97;1026412;28;20042;-73
2023/01/27 01:30:27;;;;;;;22.42;8.10;;;;;;;-2.65;100.00;95884.66;1022616;29;20553;-71
2023/01/27 01:31:07;;;;;;;20.48;8.13;;;;;;;-2.63;100.00;95887.81;1018724;29;20533;-74
2023/01/27 01:31:38;;;;;;;;;;;;;;;-2.57;100.00;95898.38;1020067;29;20020;-71
2023/01/27 01:32:11;;;;;;;18.83;7.03;;;;;;;-2.61;100.00;95896.16;1026384;28;19914;-74
2023/01/27 01:32:41;;;;;;;19.38;7.94;;;;;;;-2.57;100.00;95898.38;1026748;28;20500;-73
2023/01/27 01:33:12;;;;;;;22.55;8.77;;;;;;;-2.58;100.00;95900.16;1026334;28;20037;-71
2023/01/27 01:33:43;;;;;;;19.10;7.97;;;;;;;-2.57;100.00;95895.81;1026546;28;20484;-71
2023/01/27 01:34:13;;;;;;;24.92;8.43;;;;;;;-2.56;100.00;95887.13;1026991;28;20450;-71
2023/01/27 01:34:44;;;;;;;25.73;8.93;;;;;;;-2.64;100.00;95878.53;1026876;28;20488;-72
2023/01/27 01:35:14;;;;;;;19.17;8.13;;;;;;;-2.59;100.00;95887.47;1026680;28;20023;-72
2023/01/27 01:35:45;;;;;;;19.17;7.88;;;;;;;-2.60;100.00;95891.81;1025785;28;20041;-71
2023/01/27 01:36:16;;;;;;;21.23;8.30;;;;;;;-2.61;100.00;95885.88;1022414;29;20039;-72
2023/01/27 01:36:47;;;;;;;23.72;8.74;;;;;;;-2.63;100.00;95887.81;1022337;28;20058;-72
2023/01/27 01:37:17;;;;;;;19.15;8.00;;;;;;;-2.63;100.00;95887.81;1024234;28;20031;-73
2023/01/27 01:37:48;;;;;;;25.60;8.70;;;;;;;-2.68;100.00;95885.00;1027973;28;20077;-73
2023/01/27 01:38:19;;;;;;;25.85;8.00;;;;;;;-2.64;100.00;95886.25;1031167;28;20657;-72
2023/01/27 01:38:57;;;;;;;24.90;8.38;;;;;;;-2.68;100.00;95879.06;1027117;28;20031;-74
2023/01/27 01:39:29;;;;;;;20.08;8.20;;;;;;;-2.71;100.00;95877.66;1022272;29;20035;-72
2023/01/27 01:39:59;;;;;;;23.52;8.12;;;;;;;-2.71;100.00;95875.09;1023147;29;20078;-75
2023/01/27 01:40:30;;;;;;;21.40;8.50;;;;;;;-2.73;100.00;95871.09;1023512;28;20045;-72
2023/01/27 01:41:00;;;;;;;20.38;7.90;;;;;;;-2.72;100.00;95867.53;1027443;28;20034;-72
2023/01/27 01:41:31;;;;;;;23.75;8.20;;;;;;;-2.65;100.00;95882.09;1023389;29;20716;-71
2023/01/27 01:42:01;;;;;;;22.33;7.93;;;;;;;-2.65;100.00;95882.09;1019154;29;20038;-72
2023/01/27 01:42:56;;;;;;;24.70;8.35;;;;;;;-2.65;100.00;95884.66;1022579;28;20078;-74
2023/01/27 01:43:26;;;;;;;22.96;7.62;;;;;;;-2.68;100.00;95890.13;1025289;28;20023;-73
2023/01/27 01:43:57;;;;;;;19.10;7.90;;;;;;;-2.84;100.00;95859.47;1025861;28;20030;-72
2023/01/27 01:44:29;;;;;;;25.30;9.32;;;;;;;-2.68;100.00;95879.88;1014606;29;20028;-72
2023/01/27 01:45:30;;;;;;;22.72;8.74;;;;;;;-2.64;100.00;95890.59;1014754;29;20123;-72
2023/01/27 01:46:01;;;;;;;22.25;8.75;;;;;;;-2.64;100.00;95886.25;1022105;28;20029;-71
2023/01/27 01:46:31;;;;;;;22.77;8.45;;;;;;;-2.65;100.00;95883.84;1018171;29;20046;-72
2023/01/27 01:47:02;;;;;;;21.92;8.02;;;;;;;-2.64;100.00;95890.59;1010470;29;20042;-73
2023/01/27 01:47:32;;;;;;;22.48;8.27;;;;;;;-2.66;100.00;95888.19;1018182;29;20055;-72
2023/01/27 01:48:14;;;;;;;22.63;8.30;;;;;;;-2.62;100.00;95889.44;1022581;29;20042;-72
2023/01/27 01:48:49;;;;;;;22.76;8.32;;;;;;;-2.71;100.00;95869.94;1023935;28;20470;-71
2023/01/27 01:49:22;;;;;;;25.00;8.12;;;;;;;-2.66;100.00;95880.47;1020335;28;20015;-71
2023/01/27 01:49:53;;;;;;;23.14;8.38;;;;;;;-2.66;100.00;95882.25;1015741;29;20020;-72
2023/01/27 01:50:23;;;;;;;22.95;8.80;;;;;;;-2.67;100.00;95881.44;1014813;29;20036;-72
2023/01/27 01:51:09;;;;;;;20.35;7.95;;;;;;;-2.70;100.00;95876.66;1022154;28;20031;-71
2023/01/27 01:51:42;;;;;;;20.84;7.86;;;;;;;-2.77;100.00;95870.66;1022418;29;20027;-73
2023/01/27 01:52:15;;;;;;;22.22;8.52;;;;;;;-2.71;100.00;95880.22;1013242;29;20094;-72
2023/01/27 01:52:45;;;;;;;20.18;7.38;;;;;;;-2.67;100.00;95875.53;1014329;29;20036;-70
2023/01/27 01:53:16;;;;;;;29.92;8.85;;;;;;;-2.67;100.00;95878.88;1018646;29;20684;-73
2023/01/27 01:53:49;;;;;;;20.35;8.13;;;;;;;-2.63;100.00;95884.47;1014622;29;20072;-72
2023/01/27 01:54:27;;;;;;;21.44;8.26;;;;;;;-2.65;100.00;95889.78;1014737;29;20079;-72
2023/01/27 01:54:58;;;;;;;22.24;8.12;;;;;;;-2.65;100.00;95886.41;1025519;28;20065;-73
2023/01/27 01:55:29;;;;;;;23.58;8.88;;;;;;;-2.66;100.00;95883.03;1025936;28;20030;-71
2023/01/27 01:56:04;;;;;;;23.50;8.45;;;;;;;-2.65;100.00;95887.22;1014314;29;20051;-72
2023/01/27 01:56:46;;;;;;;23.96;8.22;;;;;;;-2.64;100.00;95886.25;1014696;29;20739;-73
2023/01/27 01:57:21;;;;;;;25.54;8.34;;;;;;;-2.61;100.00;95888.47;1018510;29;20532;-72
2023/01/27 01:57:52;;;;;;;19.48;7.98;;;;;;;-2.62;100.00;95886.88;1021232;28;20592;-74
2023/01/27 01:58:22;;;;;;;16.58;7.47;;;;;;;-2.61;100.00;95885.88;1022427;29;20071;-73
2023/01/27 01:58:53;;;;;;;22.95;9.10;;;;;;;-2.59;100.00;95890.03;1022189;29;20968;-72
2023/01/27 01:59:23;;;;;;;24.75;8.57;;;;;;;-2.57;100.00;95880.41;1024561;28;20026;-71
2023/01/27 02:00:05;;;;;;;22.20;8.23;;;;;;;-2.69;100.00;95873.13;1014624;29;20835;-73
2023/01/27 02:00:36;;;;;;;20.72;8.00;;;;;;;-2.60;100.00;95881.53;1014728;29;20028;-73
2023/01/27 02:01:06;;;;;;;19.98;8.45;;;;;;;-2.60;100.00;95871.28;1018122;29;20028;-73
2023/01/27 02:01:37;;;;;;;25.08;9.15;;;;;;;-2.54;100.00;95875.72;1022486;29;20080;-73
2023/01/27 02:02:09;;;;;;;24.40;9.40;;;;;;;-2.58;100.00;95863.38;1018498;29;20060;-74
2023/01/27 02:02:40;;;;;;;25.14;8.88;;;;;;;-2.53;100.00;95876.50;1022706;28;20038;-75
2023/01/27 02:03:10;;;;;;;30.60;9.20;;;;;;;-2.52;100.00;95872.94;1018470;29;20019;-71
2023/01/27 02:03:42;;;;;;;25.23;9.43;;;;;;;-2.55;100.00;95873.31;1018839;29;20028;-71
2023/01/27 02:04:15;;;;;;;23.18;8.62;;;;;;;-2.54;100.00;95874.91;1022519;29;20442;-73
2023/01/27 02:04:48;;;;;;;28.22;8.94;;;;;;;-2.55;100.00;95875.88;1023690;28;20027;-73
2023/01/27 02:05:36;;;;;;;24.36;9.32;;;;;;;-2.53;100.00;95871.38;1030387;28;20030;-74
2023/01/27 02:06:06;;;;;;;23.58;9.80;;;;;;;-2.52;100.00;95873.75;1026158;28;20047;-73
2023/01/27 02:06:41;;;;;;;20.35;7.25;;;;;;;-2.61;100.00;95855.06;1022273;29;20653;-73
2023/01/27 02:07:21;;;;;;;28.24;9.00;;;;;;;-2.50;100.00;95860.72;1022414;29;20074;-74
2023/01/27 02:08:41;;;;;;;22.16;8.16;;;;;;;-2.54;100.00;95868.00;1026096;28;20093;-74
2023/01/27 02:09:11;;;;;;;24.34;7.46;;;;;;;-2.53;100.00;95861.09;1028938;28;20038;-71
2023/01/27 02:09:42;;;;;;;22.27;7.82;;;;;;;-2.55;100.00;95868.16;1023569;28;20070;-71
2023/01/27 02:10:12;;;;;;;25.63;8.23;;;;;;;-2.52;100.00;95868.59;1014549;29;20043;-73
2023/01/27 02:10:43;;;;;;;24.63;9.48;;;;;;;-2.55;100.00;95863.81;1022398;29;20035;-74
2023/01/27 02:11:13;;;;;;;22.60;8.85;;;;;;;-2.54;100.00;95867.22;1022160;28;20019;-72
2023/01/27 02:11:44;;;;;;;21.42;8.30;;;;;;;-2.55;100.00;95863.03;1022317;28;20038;-73
2023/01/27 02:12:14;;;;;;;22.48;8.50;;;;;;;-2.57;100.00;95865.78;1022287;29;20027;-73
2023/01/27 02:12:45;;;;;;;24.40;8.82;;;;;;;-2.53;100.00;95866.22;1018421;29;20036;-72
2023/01/27 02:13:15;;;;;;;23.73;9.55;;;;;;;-2.62;100.00;95853.50;1029871;28;20034;-72
2023/01/27 02:13:46;;;;;;;18.02;7.63;;;;;;;-2.54;100.00;95867.22;1026288;28;20464;-72
2023/01/27 02:14:16;;;;;;;23.52;9.13;;;;;;;-2.56;100.00;95862.22;1026452;28;20039;-73
2023/01/27 02:14:47;;;;;;;21.10;8.77;;;;;;;-2.59;100.00;95861.78;1028575;28;20073;-72
2023/01/27 02:15:17;;;;;;;27.20;9.43;;;;;;;-2.58;100.00;95864.19;1018339;29;20038;-73
2023/01/27 02:15:49;;;;;;;20.88;8.25;;;;;;;-2.59;100.00;95859.22;1021549;29;20077;-72
2023/01/27 02:16:19;;;;;;;24.30;8.26;;;;;;;-2.65;100.00;95853.00;1010571;29;20037;-72
2023/01/27 02:16:50;;;;;;;22.17;8.77;;;;;;;-2.55;100.00;95868.16;1014515;29;20040;-73
2023/01/27 02:17:20;;;;;;;22.85;9.10;;;;;;;-2.53;100.00;95866.22;1014504;29;20715;-73
2023/01/27 02:17:51;;;;;;;20.27;8.40;;;;;;;-2.53;100.00;95866.22;1014402;29;20028;-71
2023/01/27 02:18:21;;;;;;;24.33;9.93;;;;;;;-2.53;100.00;95864.44;1014438;29;20031;-72
2023/01/27 02:18:52;;;;;;;23.38;8.73;;;;;;;-2.60;100.00;95858.44;1018571;28;20074;-73
2023/01/27 02:19:40;;;;;;;24.27;9.07;;;;;;;-2.52;100.00;95870.38;1026370;28;20037;-73
2023/01/27 02:20:32;;;;;;;21.58;8.18;;;;;;;-2.58;100.00;95864.19;1021988;28;20100;-71
2023/01/27 02:21:03;;;;;;;19.94;7.66;;;;;;;-2.53;100.00;95872.16;1026156;28;20030;-71
2023/01/27 02:21:34;;;;;;;23.55;9.77;;;;;;;-2.54;100.00;95864.63;1026228;28;20117;-72
2023/01/27 02:22:04;;;;;;;32.83;9.20;;;;;;;-2.52;100.00;95871.16;1022566;28;20039;-71
2023/01/27 02:22:34;;;;;;;22.58;8.98;;;;;;;-2.50;100.00;95871.00;1023157;29;20453;-72
2023/01/27 02:23:14;;;;;;;24.50;8.15;;;;;;;-2.51;100.00;95874.56;1021952;28;20640;-71
2023/01/27 02:24:00;;;;;;;23.75;9.20;;;;;;;-2.48;100.00;95874.19;1026965;28;20027;-71
2023/01/27 02:24:34;;;;;;;22.46;8.80;;;;;;;-2.53;100.00;95876.50;1026539;28;20038;-72
2023/01/27 02:25:34;;;;;;;22.20;8.34;;;;;;;-2.55;100.00;95868.97;1022397;28;20034;-71
2023/01/27 02:26:18;;;;;;;24.88;8.88;;;;;;;-2.54;100.00;95877.47;1009732;28;20087;-69
2023/01/27 02:26:48;;;;;;;21.14;8.40;;;;;;;-2.49;100.00;95877.72;1024945;28;20571;-71
2023/01/27 02:27:19;;;;;;;27.02;8.60;;;;;;;-2.49;100.00;95882.88;1015105;29;20032;-71
2023/01/27 02:27:49;;;;;;;21.27;7.90;;;;;;;-2.49;100.00;95880.31;1015234;29;20028;-70
2023/01/27 02:28:20;;;;;;;17.90;8.48;;;;;;;-2.56;100.00;95871.72;1018952;29;20028;-73
2023/01/27 02:28:55;;;;;;;20.90;8.18;;;;;;;-2.48;100.00;95876.75;1023221;28;20134;-72
2023/01/27 02:29:27;;;;;;;21.50;8.22;;;;;;;-2.53;100.00;95871.38;1027203;28;20042;-72
2023/01/27 02:29:57;;;;;;;22.26;7.96;;;;;;;-2.56;100.00;95871.72;1021941;28;20031;-71
2023/01/27 02:30:29;;;;;;;25.25;8.40;;;;;;;-2.54;100.00;95874.91;1023012;29;20030;-74
2023/01/27 02:30:59;;;;;;;23.22;8.66;;;;;;;-2.54;100.00;95865.44;1023032;28;20481;-72
2023/01/27 02:31:30;;;;;;;25.25;9.27;;;;;;;-2.55;100.00;95870.72;1022893;28;20028;-74
2023/01/27 02:32:00;;;;;;;24.33;8.82;;;;;;;-2.60;100.00;95863.56;1019229;29;20428;-72
2023/01/27 02:32:33;;;;;;;24.17;8.93;;;;;;;-2.53;100.00;95863.66;1026962;28;20073;-72
2023/01/27 02:33:11;;;;;;;22.64;8.52;;;;;;;-2.55;100.00;95868.16;1027007;28;20022;-72
2023/01/27 02:33:41;;;;;;;24.62;8.28;;;;;;;-2.59;100.00;95862.59;1032282;28;20397;-71
2023/01/27 02:34:16;;;;;;;22.35;8.27;;;;;;;-2.52;100.00;95862.69;1018716;29;20030;-71
2023/01/27 02:34:47;;;;;;;22.78;8.66;;;;;;;-2.49;100.00;95875.16;1022451;29;20023;-73
2023/01/27 02:35:24;;;;;;;23.85;9.02;;;;;;;-2.54;100.00;95865.44;1014965;29;20111;-72
2023/01/27 02:36:02;;;;;;;25.76;9.08;;;;;;;-2.55;100.00;95865.59;1029997;28;20018;-72
2023/01/27 02:36:35;;;;;;;18.02;7.44;;;;;;;-2.52;100.00;95865.25;1018989;29;20024;-72
2023/01/27 02:37:06;;;;;;;26.02;8.78;;;;;;;-2.49;100.00;95870.03;1015336;29;20043;-70